Current Weather

Addison

Dallas, Texas (KADS)

Report from: Sunday, February 25, 2024 3:47 PM CST
Current time: Sunday, February 25, 2024 4:54 PM CST

Nearby weather – Weather history – Daily summaries
Weather forecast

Temperature28.0°C (82.4°F)
Heat index27.4°C (81.3°F)
Dew point9.0°C (48.2°F)
Winds 13 kts (6.7 m/s, 15 mph) South (180°)
Wind gusts 21 kts (10.8 m/s, 24.2 mph)
Visibility13 mi. (20.9 km)
Clouds Sky clear
Altimeter29.84 in.Hg (1010 mB)
Relative humidity30 %
Density altitude1,754 ft. (535 m)
Flight conditions Visual Meteorological Conditions
Raw dataKADS 252147Z 18013G21KT 13SM SKC 28/09 A2984
An error has occurred. This application may no longer respond until reloaded. Reload 🗙